createdAt,value
2018-10-05T00:02:27.289Z,102177.78
2018-10-05T00:04:55.758Z,102182.07
2018-10-05T00:07:24.347Z,102180.10
2018-10-05T00:09:52.902Z,102176.13
2018-10-05T00:12:21.293Z,102172.86
2018-10-05T00:14:49.979Z,102177.56
2018-10-05T00:17:18.455Z,102171.14
2018-10-05T00:19:47.056Z,102179.50
2018-10-05T00:22:15.575Z,102174.60
2018-10-05T00:24:45.308Z,102168.66
2018-10-05T00:27:13.893Z,102179.19
2018-10-05T00:29:42.327Z,102169.17
2018-10-05T00:32:10.885Z,102167.23
2018-10-05T00:34:39.262Z,102172.27
2018-10-05T00:37:07.679Z,102174.19
2018-10-05T00:39:36.328Z,102166.42
2018-10-05T00:42:04.710Z,102173.06
2018-10-05T00:44:33.292Z,102164.16
2018-10-05T00:47:01.851Z,102176.55
2018-10-05T00:49:30.258Z,102172.95
2018-10-05T00:51:58.725Z,102164.08
2018-10-05T00:54:27.440Z,102153.75
2018-10-05T00:56:56.028Z,102149.97
2018-10-05T00:59:24.570Z,102144.87
2018-10-05T01:01:53.120Z,102150.09
2018-10-05T01:04:21.528Z,102146.73
2018-10-05T01:06:50.008Z,102142.74
2018-10-05T01:09:18.402Z,102148.47
2018-10-05T01:11:46.822Z,102150.71
2018-10-05T01:14:15.243Z,102151.52
2018-10-05T01:16:43.642Z,102146.61
2018-10-05T01:19:12.139Z,102146.83
2018-10-05T01:21:40.486Z,102146.61
2018-10-05T01:24:08.880Z,102151.63
2018-10-05T01:26:37.387Z,102155.62
2018-10-05T01:29:06.200Z,102153.98
2018-10-05T01:31:34.743Z,102156.03
2018-10-05T01:34:03.162Z,102150.72
2018-10-05T01:36:31.599Z,102161.42
2018-10-05T01:39:00.298Z,102156.73
2018-10-05T01:41:28.717Z,102163.27
2018-10-05T01:43:57.161Z,102158.56
2018-10-05T01:46:25.613Z,102156.64
2018-10-05T01:48:53.972Z,102152.45
2018-10-05T01:51:34.245Z,102148.58
2018-10-05T01:54:03.985Z,102148.44
2018-10-05T01:56:33.346Z,102143.44
2018-10-05T01:59:02.159Z,102147.42
2018-10-05T02:01:31.290Z,102151.71
2018-10-05T02:03:59.769Z,102141.70
2018-10-05T02:06:28.202Z,102145.89
2018-10-05T02:08:56.969Z,102141.30
2018-10-05T02:11:25.409Z,102137.32
2018-10-05T02:13:53.902Z,102132.12
2018-10-05T02:16:22.409Z,102129.05
2018-10-05T02:18:50.761Z,102126.91
2018-10-05T02:21:19.176Z,102133.34
2018-10-05T02:23:47.548Z,102131.30
2018-10-05T02:26:16.035Z,102125.45
2018-10-05T02:28:44.539Z,102126.27
2018-10-05T02:31:13.001Z,102131.03
2018-10-05T02:33:41.360Z,102123.00
2018-10-05T02:36:09.798Z,102122.47
2018-10-05T02:38:38.180Z,102121.92
2018-10-05T02:41:06.570Z,102121.85
2018-10-05T02:43:35.144Z,102121.85
2018-10-05T02:46:03.518Z,102115.59
2018-10-05T02:48:32.055Z,102109.58
2018-10-05T02:51:00.488Z,102118.96
2018-10-05T02:53:29.154Z,102112.94
2018-10-05T02:55:57.596Z,102110.91
2018-10-05T02:58:26.045Z,102108.76
2018-10-05T03:01:05.671Z,102103.86
2018-10-05T03:03:34.198Z,102095.70
2018-10-05T03:06:02.572Z,102100.08
2018-10-05T03:08:31.082Z,102097.50
2018-10-05T03:10:59.471Z,102091.41
2018-10-05T03:13:28.070Z,102094.44
2018-10-05T03:15:56.496Z,102087.61
2018-10-05T03:18:24.960Z,102080.67
2018-10-05T03:20:53.364Z,102080.36
2018-10-05T03:23:21.785Z,102079.44
2018-10-05T03:25:50.366Z,102076.18
2018-10-05T03:28:18.911Z,102079.66
2018-10-05T03:30:47.298Z,102085.16
2018-10-05T03:33:16.104Z,102081.59
2018-10-05T03:35:44.484Z,102076.39
2018-10-05T03:38:12.885Z,102076.69
2018-10-05T03:40:41.298Z,102075.98
2018-10-05T03:43:09.653Z,102077.30
2018-10-05T03:45:38.171Z,102079.55
2018-10-05T03:48:06.885Z,102069.75
2018-10-05T03:50:35.412Z,102072.41
2018-10-05T03:53:04.272Z,102077.92
2018-10-05T03:55:32.863Z,102072.61
2018-10-05T03:58:01.246Z,102065.61
2018-10-05T04:00:29.813Z,102061.80
2018-10-05T04:02:58.402Z,102062.41
2018-10-05T04:05:26.804Z,102060.37
2018-10-05T04:07:55.362Z,102054.36
2018-10-05T04:10:23.788Z,102062.00
2018-10-05T04:12:52.274Z,102057.83
2018-10-05T04:15:20.662Z,102055.78
2018-10-05T04:17:49.116Z,102059.97
2018-10-05T04:20:17.833Z,102058.03
2018-10-05T04:22:46.338Z,102060.78
2018-10-05T04:25:14.700Z,102058.44
2018-10-05T04:27:43.095Z,102064.25
2018-10-05T04:30:11.585Z,102057.52
2018-10-05T04:32:40.511Z,102061.80
2018-10-05T04:35:09.068Z,102065.06
2018-10-05T04:37:37.494Z,102065.67
2018-10-05T04:40:05.870Z,102067.67
2018-10-05T04:42:34.388Z,102066.59
2018-10-05T04:45:02.830Z,102068.84
2018-10-05T04:47:31.202Z,102054.66
2018-10-05T04:49:59.790Z,102061.56
2018-10-05T04:52:28.252Z,102061.05
2018-10-05T04:54:56.745Z,102064.66
2018-10-05T04:57:25.235Z,102056.25
2018-10-05T04:59:53.676Z,102051.91
2018-10-05T05:02:22.031Z,102053.73
2018-10-05T05:04:50.492Z,102055.38
2018-10-05T05:07:18.857Z,102055.23
2018-10-05T05:09:47.234Z,102053.23
2018-10-05T05:12:15.850Z,102048.00
2018-10-05T05:14:44.137Z,102044.63
2018-10-05T05:17:12.758Z,102050.75
2018-10-05T05:19:41.191Z,102049.52
2018-10-05T05:22:09.683Z,102054.62
2018-10-05T05:24:38.060Z,102049.42
2018-10-05T05:27:06.538Z,102055.42
2018-10-05T05:29:35.164Z,102053.59
2018-10-05T05:32:03.629Z,102057.27
2018-10-05T05:34:32.022Z,102056.96
2018-10-05T05:37:00.366Z,102059.61
2018-10-05T05:39:28.945Z,102056.86
2018-10-05T05:41:57.347Z,102062.42
2018-10-05T05:44:25.866Z,102058.38
2018-10-05T05:46:54.355Z,102058.08
2018-10-05T05:49:22.720Z,102059.61
2018-10-05T05:51:51.199Z,102054.10
2018-10-05T05:54:19.682Z,102055.62
2018-10-05T05:56:48.209Z,102051.61
2018-10-05T05:59:16.724Z,102054.97
2018-10-05T06:01:46.102Z,102052.32
2018-10-05T06:04:14.605Z,102053.95
2018-10-05T06:06:43.042Z,102059.88
2018-10-05T06:09:11.545Z,102059.30
2018-10-05T06:11:39.936Z,102056.41
2018-10-05T06:14:08.376Z,102056.09
2018-10-05T06:16:36.937Z,102053.44
2018-10-05T06:19:05.455Z,102058.33
2018-10-05T06:21:33.981Z,102063.97
2018-10-05T06:24:02.447Z,102069.45
2018-10-05T06:26:30.821Z,102070.47
2018-10-05T06:28:59.569Z,102072.47
2018-10-05T06:31:28.069Z,102077.23
2018-10-05T06:33:56.690Z,102080.79
2018-10-05T06:36:25.321Z,102076.95
2018-10-05T06:38:53.754Z,102088.11
2018-10-05T06:41:22.223Z,102083.55
2018-10-05T06:43:50.632Z,102087.33
2018-10-05T06:46:19.043Z,102086.02
2018-10-05T06:48:47.583Z,102085.98
2018-10-05T06:51:16.008Z,102080.70
2018-10-05T06:53:44.626Z,102088.41
2018-10-05T06:56:13.104Z,102081.58
2018-10-05T06:58:41.548Z,102083.67
2018-10-05T07:01:10.161Z,102089.69
2018-10-05T07:03:38.694Z,102086.44
2018-10-05T07:06:07.260Z,102087.05
2018-10-05T07:08:35.649Z,102086.69
2018-10-05T07:11:04.423Z,102086.52
2018-10-05T07:13:33.000Z,102085.09
2018-10-05T07:16:01.436Z,102086.14
2018-10-05T07:18:29.932Z,102086.24
2018-10-05T07:20:58.495Z,102085.94
2018-10-05T07:23:26.894Z,102087.19
2018-10-05T07:25:55.299Z,102076.59
2018-10-05T07:28:23.831Z,102074.63
2018-10-05T07:30:52.352Z,102074.13
2018-10-05T07:33:20.819Z,102074.44
2018-10-05T07:35:49.232Z,102075.46
2018-10-05T07:38:17.701Z,102072.69
2018-10-05T07:40:46.302Z,102071.44
2018-10-05T07:43:15.324Z,102067.34
2018-10-05T07:45:43.837Z,102066.89
2018-10-05T07:48:12.243Z,102069.16
2018-10-05T07:50:40.685Z,102074.23
2018-10-05T07:53:09.232Z,102073.86
2018-10-05T07:55:38.623Z,102070.50
2018-10-05T07:58:07.138Z,102068.96
2018-10-05T08:00:35.684Z,102073.08
2018-10-05T08:03:04.327Z,102076.80
2018-10-05T08:05:32.741Z,102065.98
2018-10-05T08:08:01.236Z,102071.34
2018-10-05T08:10:29.641Z,102075.35
2018-10-05T08:12:58.119Z,102070.83
2018-10-05T08:15:26.563Z,102064.03
2018-10-05T08:17:54.999Z,102063.44
2018-10-05T08:20:23.499Z,102061.84
2018-10-05T08:22:52.001Z,102073.58
2018-10-05T08:25:20.550Z,102063.20
2018-10-05T08:27:49.115Z,102060.91
2018-10-05T08:30:17.649Z,102054.89
2018-10-05T08:32:46.249Z,102047.97
2018-10-05T08:35:14.953Z,102050.41
2018-10-05T08:37:43.454Z,102052.00
2018-10-05T08:40:12.302Z,102049.33
2018-10-05T08:42:40.648Z,102049.50
2018-10-05T08:45:09.274Z,102050.24
2018-10-05T08:47:37.767Z,102048.09
2018-10-05T08:50:06.155Z,102050.61
2018-10-05T08:52:34.769Z,102050.30
2018-10-05T08:55:03.209Z,102042.14
2018-10-05T08:57:32.068Z,102043.87
2018-10-05T09:00:00.609Z,102031.28
2018-10-05T09:02:29.105Z,102036.38
2018-10-05T09:04:57.681Z,102029.95
2018-10-05T09:07:26.145Z,102029.80
2018-10-05T09:09:54.733Z,102021.31
2018-10-05T09:12:23.184Z,102021.92
2018-10-05T09:14:51.947Z,102021.75
2018-10-05T09:17:20.411Z,102015.16
2018-10-05T09:19:48.994Z,102014.55
2018-10-05T09:22:17.403Z,102014.33
2018-10-05T09:24:45.954Z,102016.71
2018-10-05T09:27:14.368Z,102012.58
2018-10-05T09:29:42.855Z,102016.06
2018-10-05T09:32:11.209Z,102009.57
2018-10-05T09:34:39.585Z,102002.04
2018-10-05T09:37:08.123Z,102000.92
2018-10-05T09:39:36.585Z,101999.31
2018-10-05T09:42:05.160Z,101994.25
2018-10-05T09:44:33.792Z,101991.81
2018-10-05T09:47:02.320Z,101994.80
2018-10-05T09:49:30.790Z,101986.39
2018-10-05T09:51:59.714Z,101978.49
2018-10-05T09:54:28.262Z,101981.69
2018-10-05T09:56:56.671Z,101975.27
2018-10-05T09:59:25.170Z,101971.77
2018-10-05T10:01:59.013Z,101968.05
2018-10-05T10:04:27.574Z,101959.41
2018-10-05T10:06:56.061Z,101960.21
2018-10-05T10:09:24.847Z,101954.73
2018-10-05T10:11:53.526Z,101957.20
2018-10-05T10:14:22.096Z,101956.05
2018-10-05T10:16:50.716Z,101958.14
2018-10-05T10:19:19.181Z,101955.70
2018-10-05T10:21:47.893Z,101955.74
2018-10-05T10:24:16.485Z,101949.76
2018-10-05T10:26:45.078Z,101950.73
2018-10-05T10:29:13.651Z,101956.95
2018-10-05T10:31:42.159Z,101950.85
2018-10-05T10:34:10.671Z,101946.03
2018-10-05T10:36:39.852Z,101940.95
2018-10-05T10:39:08.730Z,101939.15
2018-10-05T10:41:37.293Z,101937.67
2018-10-05T10:44:05.851Z,101940.00
2018-10-05T10:46:34.362Z,101934.65
2018-10-05T10:49:02.919Z,101934.65
2018-10-05T10:51:31.462Z,101934.66
2018-10-05T10:54:00.137Z,101923.16
2018-10-05T10:56:28.981Z,101918.20
2018-10-05T10:58:57.420Z,101914.61
2018-10-05T11:01:25.932Z,101911.00
2018-10-05T11:03:54.541Z,101907.70
2018-10-05T11:06:22.976Z,101901.94
2018-10-05T11:08:52.507Z,101898.67
2018-10-05T11:11:20.965Z,101900.03
2018-10-05T11:13:49.429Z,101891.58
2018-10-05T11:16:18.027Z,101889.36
2018-10-05T11:18:46.592Z,101889.16
2018-10-05T11:21:15.236Z,101877.92
2018-10-05T11:23:43.816Z,101875.11
2018-10-05T11:26:12.336Z,101872.89
2018-10-05T11:28:40.995Z,101869.14
2018-10-05T11:31:09.710Z,101874.80
2018-10-05T11:33:38.315Z,101868.94
2018-10-05T11:36:07.005Z,101860.27
2018-10-05T11:38:35.835Z,101861.64
2018-10-05T11:41:04.659Z,101856.38
2018-10-05T11:43:33.284Z,101854.42
2018-10-05T11:46:01.777Z,101850.79
2018-10-05T11:48:30.397Z,101834.40
2018-10-05T11:50:59.134Z,101836.13
2018-10-05T11:53:28.336Z,101832.91
2018-10-05T11:55:56.939Z,101820.22
2018-10-05T11:58:26.550Z,101820.17
2018-10-05T12:00:55.097Z,101816.52
2018-10-05T12:03:23.736Z,101810.25
2018-10-05T12:05:52.276Z,101811.59
2018-10-05T12:08:20.901Z,101801.11
2018-10-05T12:10:49.766Z,101790.80
2018-10-05T12:13:18.282Z,101794.62
2018-10-05T12:15:47.533Z,101793.41
2018-10-05T12:18:16.102Z,101786.89
2018-10-05T12:20:44.746Z,101777.75
2018-10-05T12:23:13.213Z,101778.56
2018-10-05T12:25:41.700Z,101773.70
2018-10-05T12:28:10.452Z,101768.98
2018-10-05T12:30:38.971Z,101761.03
2018-10-05T12:33:07.973Z,101755.19
2018-10-05T12:35:36.600Z,101751.91
2018-10-05T12:38:05.376Z,101749.55
2018-10-05T12:40:34.125Z,101745.73
2018-10-05T12:43:02.721Z,101747.77
2018-10-05T12:45:31.409Z,101736.20
2018-10-05T12:48:00.065Z,101738.04
2018-10-05T12:50:28.548Z,101728.34
2018-10-05T12:52:57.005Z,101728.36
2018-10-05T12:55:25.800Z,101726.77
2018-10-05T12:57:54.397Z,101725.66
2018-10-05T13:00:22.961Z,101725.55
2018-10-05T13:02:51.460Z,101717.46
2018-10-05T13:05:19.999Z,101713.33
2018-10-05T13:07:48.464Z,101709.07
2018-10-05T13:10:17.049Z,101698.81
2018-10-05T13:12:45.844Z,101704.10
2018-10-05T13:15:14.482Z,101696.19
2018-10-05T13:17:44.023Z,101697.84
2018-10-05T13:20:12.553Z,101689.80
2018-10-05T13:22:42.729Z,101681.76
2018-10-05T13:25:11.204Z,101684.71
2018-10-05T13:27:39.885Z,101685.50
2018-10-05T13:30:08.990Z,101673.66
2018-10-05T13:32:37.391Z,101670.66
2018-10-05T13:35:05.905Z,101670.76
2018-10-05T13:37:34.819Z,101671.84
2018-10-05T13:40:03.507Z,101668.89
2018-10-05T13:42:32.133Z,101667.83
2018-10-05T13:45:00.648Z,101666.22
2018-10-05T13:47:29.176Z,101663.77
2018-10-05T13:49:57.904Z,101667.80
2018-10-05T13:52:26.660Z,101671.28
2018-10-05T13:54:55.265Z,101668.10
2018-10-05T13:57:23.782Z,101652.59
2018-10-05T13:59:52.349Z,101649.39
2018-10-05T14:02:20.961Z,101656.05
2018-10-05T14:04:49.499Z,101653.36
2018-10-05T14:07:18.283Z,101643.97
2018-10-05T14:09:46.846Z,101635.91
2018-10-05T14:12:15.464Z,101642.60
2018-10-05T14:14:43.883Z,101636.17
2018-10-05T14:17:12.949Z,101631.60
2018-10-05T14:19:41.478Z,101627.05
2018-10-05T14:22:10.097Z,101623.53
2018-10-05T14:24:38.706Z,101620.88
2018-10-05T14:27:07.448Z,101622.77
2018-10-05T14:29:35.922Z,101613.13
2018-10-05T14:32:04.415Z,101606.42
2018-10-05T14:34:32.942Z,101608.84
2018-10-05T14:37:01.485Z,101603.53
2018-10-05T14:39:30.097Z,101607.23
2018-10-05T14:41:59.142Z,101609.87
2018-10-05T14:44:27.636Z,101603.75
2018-10-05T14:46:56.364Z,101606.67
2018-10-05T14:49:25.066Z,101602.67
2018-10-05T14:51:53.956Z,101593.54
2018-10-05T14:54:22.541Z,101592.72
2018-10-05T14:56:51.173Z,101582.25
2018-10-05T14:59:19.805Z,101588.94
2018-10-05T15:01:48.611Z,101592.43
2018-10-05T15:04:21.559Z,101574.20
2018-10-05T15:06:50.227Z,101576.02
2018-10-05T15:09:18.951Z,101566.69
2018-10-05T15:11:47.513Z,101566.42
2018-10-05T15:14:16.177Z,101557.03
2018-10-05T15:16:44.760Z,101559.98
2018-10-05T15:19:14.194Z,101552.44
2018-10-05T15:21:42.873Z,101550.83
2018-10-05T15:24:11.660Z,101544.10
2018-10-05T15:26:40.325Z,101550.80
2018-10-05T15:29:09.169Z,101541.17
2018-10-05T15:31:37.942Z,101543.05
2018-10-05T15:34:06.451Z,101540.08
2018-10-05T15:39:02.928Z,101537.66
2018-10-05T15:41:31.538Z,101531.48
2018-10-05T15:44:00.415Z,101527.73
2018-10-05T15:46:53.826Z,101533.03
2018-10-05T15:49:22.473Z,101526.05
2018-10-05T15:51:51.433Z,101517.75
2018-10-05T15:54:20.180Z,101520.69
2018-10-05T15:56:48.779Z,101518.25
2018-10-05T15:59:24.182Z,101513.17
2018-10-05T16:04:45.307Z,101518.15
2018-10-05T16:07:14.105Z,101522.16
2018-10-05T16:09:42.820Z,101516.50
2018-10-05T16:12:11.355Z,101514.05
2018-10-05T16:14:40.036Z,101511.69
2018-10-05T16:17:08.576Z,101509.76
2018-10-05T16:19:37.559Z,101508.66
2018-10-05T16:22:06.307Z,101506.73
2018-10-05T16:24:39.928Z,101502.69
2018-10-05T16:27:09.294Z,101503.75
2018-10-05T16:29:38.389Z,101508.00
2018-10-05T16:32:07.432Z,101500.72
2018-10-05T16:34:36.123Z,101511.17
2018-10-05T16:37:05.252Z,101502.84
2018-10-05T16:39:34.564Z,101501.73
2018-10-05T16:42:03.168Z,101504.34
2018-10-05T16:44:31.821Z,101503.53
2018-10-05T16:47:00.488Z,101499.45
2018-10-05T16:49:29.078Z,101499.75
2018-10-05T16:51:57.686Z,101501.79
2018-10-05T16:54:26.653Z,101503.94
2018-10-05T16:56:55.135Z,101502.58
2018-10-05T16:59:23.821Z,101504.16
2018-10-05T17:01:52.440Z,101493.13
2018-10-05T17:04:21.477Z,101496.08
2018-10-05T17:06:50.112Z,101500.03
2018-10-05T17:09:19.769Z,101496.80
2018-10-05T17:11:48.333Z,101496.52
2018-10-05T17:14:16.868Z,101501.83
2018-10-05T17:16:45.304Z,101502.59
2018-10-05T17:19:13.951Z,101498.48
2018-10-05T17:21:42.621Z,101501.97
2018-10-05T17:24:11.318Z,101497.59
2018-10-05T17:26:40.809Z,101498.94
2018-10-05T17:29:09.509Z,101502.62
2018-10-05T17:31:38.099Z,101497.17
2018-10-05T17:34:06.652Z,101504.91
2018-10-05T17:36:35.787Z,101503.55
2018-10-05T17:39:07.686Z,101504.86
2018-10-05T17:41:36.319Z,101504.03
2018-10-05T17:44:04.811Z,101502.39
2018-10-05T17:46:33.436Z,101499.66
2018-10-05T17:49:01.979Z,101500.16
2018-10-05T17:51:30.555Z,101495.06
2018-10-05T17:53:59.187Z,101491.34
2018-10-05T17:56:27.602Z,101491.09
2018-10-05T17:58:56.105Z,101485.13
2018-10-05T18:01:24.744Z,101482.48
2018-10-05T18:03:53.449Z,101482.68
2018-10-05T18:06:22.112Z,101477.06
2018-10-05T18:08:50.672Z,101475.52
2018-10-05T18:11:19.329Z,101474.94
2018-10-05T18:13:47.903Z,101471.63
2018-10-05T18:16:16.511Z,101465.03
2018-10-05T18:18:45.130Z,101470.29
2018-10-05T18:21:13.674Z,101464.39
2018-10-05T18:23:42.514Z,101462.16
2018-10-05T18:26:11.018Z,101460.80
2018-10-05T18:28:39.487Z,101456.17
2018-10-05T18:31:08.018Z,101451.08
2018-10-05T18:33:36.614Z,101448.88
2018-10-05T18:36:05.257Z,101447.55
2018-10-05T18:38:33.833Z,101449.16
2018-10-05T18:41:02.701Z,101445.93
2018-10-05T18:43:31.296Z,101443.04
2018-10-05T18:45:59.854Z,101441.09
2018-10-05T18:48:28.281Z,101437.36
2018-10-05T18:50:56.771Z,101440.16
2018-10-05T18:53:25.650Z,101439.36
2018-10-05T18:55:54.279Z,101436.06
2018-10-05T18:58:23.039Z,101438.77
2018-10-05T19:00:51.664Z,101444.61
2018-10-05T19:03:20.250Z,101433.55
2018-10-05T19:05:48.654Z,101435.41
2018-10-05T19:08:17.327Z,101436.09
2018-10-05T19:10:45.957Z,101434.95
2018-10-05T19:13:14.649Z,101423.46
2018-10-05T19:15:43.226Z,101427.43
2018-10-05T19:18:11.691Z,101417.71
2018-10-05T19:20:40.153Z,101426.63
2018-10-05T19:23:08.922Z,101428.17
2018-10-05T19:25:37.517Z,101428.48
2018-10-05T19:28:06.290Z,101428.14
2018-10-05T19:30:34.814Z,101421.69
2018-10-05T19:33:03.315Z,101419.16
2018-10-05T19:35:31.944Z,101418.10
2018-10-05T19:38:00.488Z,101412.14
2018-10-05T19:40:29.240Z,101420.64
2018-10-05T19:42:57.767Z,101413.69
2018-10-05T19:45:26.386Z,101413.37
2018-10-05T19:47:54.905Z,101402.28
2018-10-05T19:50:23.701Z,101406.35
2018-10-05T19:52:58.957Z,101406.42
2018-10-05T19:55:27.465Z,101402.77
2018-10-05T19:57:55.952Z,101405.65
2018-10-05T20:00:24.434Z,101405.53
2018-10-05T20:02:53.083Z,101411.12
2018-10-05T20:05:21.680Z,101402.66
2018-10-05T20:07:50.249Z,101395.53
2018-10-05T20:10:18.821Z,101398.94
2018-10-05T20:12:47.367Z,101393.87
2018-10-05T20:15:16.076Z,101388.98
2018-10-05T20:17:44.660Z,101393.35
2018-10-05T20:20:13.468Z,101387.53
2018-10-05T20:22:42.152Z,101387.41
2018-10-05T20:25:10.898Z,101391.85
2018-10-05T20:27:39.402Z,101381.88
2018-10-05T20:30:08.982Z,101385.87
2018-10-05T20:32:37.611Z,101379.37
2018-10-05T20:35:06.144Z,101381.00
2018-10-05T20:37:34.785Z,101377.63
2018-10-05T20:40:02.995Z,101378.64
2018-10-05T20:42:31.521Z,101373.84
2018-10-05T20:45:00.263Z,101378.88
2018-10-05T20:47:28.768Z,101371.77
2018-10-05T20:49:57.273Z,101366.42
2018-10-05T20:52:25.713Z,101364.87
2018-10-05T20:54:54.334Z,101370.23
2018-10-05T20:57:23.406Z,101363.23
2018-10-05T20:59:53.161Z,101355.30
2018-10-05T21:02:21.921Z,101360.00
2018-10-05T21:04:50.394Z,101349.98
2018-10-05T21:07:19.261Z,101349.17
2018-10-05T21:09:47.740Z,101345.56
2018-10-05T21:12:17.193Z,101344.75
2018-10-05T21:14:45.680Z,101342.09
2018-10-05T21:17:14.223Z,101343.14
2018-10-05T21:19:43.007Z,101334.11
2018-10-05T21:22:11.827Z,101341.52
2018-10-05T21:24:40.391Z,101336.15
2018-10-05T21:27:09.102Z,101331.54
2018-10-05T21:29:37.555Z,101337.09
2018-10-05T21:32:06.094Z,101341.37
2018-10-05T21:34:34.973Z,101333.62
2018-10-05T21:37:03.642Z,101330.31
2018-10-05T21:39:32.183Z,101330.48
2018-10-05T21:42:00.568Z,101326.40
2018-10-05T21:44:29.089Z,101324.59
2018-10-05T21:46:57.572Z,101322.47
2018-10-05T21:49:25.950Z,101321.14
2018-10-05T21:51:54.443Z,101318.19
2018-10-05T21:54:23.234Z,101318.75
2018-10-05T21:56:51.685Z,101308.00
2018-10-05T21:59:21.690Z,101311.70
2018-10-05T22:01:50.177Z,101301.02
2018-10-05T22:04:18.828Z,101300.55
2018-10-05T22:06:47.594Z,101298.25
2018-10-05T22:09:16.240Z,101298.56
2018-10-05T22:11:44.983Z,101299.66
2018-10-05T22:14:13.377Z,101299.52
2018-10-05T22:16:41.853Z,101296.92
2018-10-05T22:19:10.388Z,101301.37
2018-10-05T22:21:38.918Z,101297.98
2018-10-05T22:24:07.723Z,101292.07
2018-10-05T22:26:36.178Z,101282.16
2018-10-05T22:29:05.443Z,101285.42
2018-10-05T22:31:34.019Z,101282.05
2018-10-05T22:34:02.506Z,101272.63
2018-10-05T22:36:30.979Z,101271.85
2018-10-05T22:38:59.463Z,101267.49
2018-10-05T22:41:28.120Z,101272.66
2018-10-05T22:43:56.605Z,101271.41
2018-10-05T22:46:25.332Z,101266.32
2018-10-05T22:48:54.761Z,101266.48
2018-10-05T22:51:23.636Z,101268.52
2018-10-05T22:53:52.089Z,101267.19
2018-10-05T22:56:20.762Z,101263.08
2018-10-05T22:58:49.180Z,101266.94
2018-10-05T23:01:17.605Z,101264.51
2018-10-05T23:03:46.240Z,101260.30
2018-10-05T23:06:14.654Z,101255.18
2018-10-05T23:08:43.016Z,101257.09
2018-10-05T23:11:12.850Z,101248.24
2018-10-05T23:13:41.250Z,101249.92
2018-10-05T23:16:09.672Z,101246.98
2018-10-05T23:18:38.161Z,101249.81
2018-10-05T23:21:06.756Z,101244.38
2018-10-05T23:23:35.168Z,101240.40
2018-10-05T23:26:03.763Z,101233.83
2018-10-05T23:28:32.161Z,101241.27
2018-10-05T23:31:00.579Z,101235.45
2018-10-05T23:33:29.102Z,101234.84
2018-10-05T23:35:57.544Z,101232.67
2018-10-05T23:38:25.923Z,101230.13
2018-10-05T23:40:54.312Z,101229.96
2018-10-05T23:43:22.701Z,101226.88
2018-10-05T23:45:51.121Z,101228.80
2018-10-05T23:48:19.512Z,101213.84
2018-10-05T23:50:47.869Z,101214.66
2018-10-05T23:53:16.330Z,101217.89
2018-10-05T23:55:44.968Z,101216.69
2018-10-05T23:58:13.542Z,101218.64
